Weather at Belleville Aerodrome

Public forecast

Using degrees Celsius for public forecast. Weather courtesy of forecast.io.

Closest aviation weather report (METAR) to Belleville Aerodrome

Closest report is CFB Trenton, 10.4 nm (19.3 km) WSW. Retrieved 2022/01/27 08:00 UTC (32 minutes ago):

CYTR 270800Z 07002KT 7SM -SHSN OVC031 M15/M17 A3029 RMK SC8 SLP265

Closest aviation forecast (TAF) to Belleville Aerodrome

Closest forecast is CFB Trenton, 10.4 nm (19.3 km) WSW. Retrieved 2022/01/27 06:42 UTC (2 hours ago):

TAF CYTR 270540Z 2706/2806 VRB03KT P6SM BKN025 OVC170 TEMPO 2706/2709 2SM -SHSN OVC020 FM270900 21012KT P6SM SCT025 OVC170 TEMPO 2709/2717 5SM -SHSN OVC020 BECMG 2713/2715 21015G25KT FM271700 21015G25KT 6SM -SHSN SCT010 BKN020 OVC050 FM272000 22015G25KT 4SM -SN BLSN SCT010 OVC020 FM272200 23015G25KT 2SM -SN BLSN BKN010 OVC020 FM280400 26010G20KT 6SM -SN SCT010 OVC020 RMK NXT FCST BY 271200Z